sensor_id;sensor_type;location;lat;lon;timestamp;temperature;humidity
24836;DHT22;12915;57.650;12.044;2022-12-18T00:01:32;2.70;99.90
24836;DHT22;12915;57.650;12.044;2022-12-18T00:03:59;2.90;99.90
24836;DHT22;12915;57.650;12.044;2022-12-18T00:06:27;3.00;99.90
24836;DHT22;12915;57.650;12.044;2022-12-18T00:08:55;3.10;99.90
24836;DHT22;12915;57.650;12.044;2022-12-18T00:11:23;3.10;99.90
24836;DHT22;12915;57.650;12.044;2022-12-18T00:13:50;2.90;99.90
24836;DHT22;12915;57.650;12.044;2022-12-18T00:16:19;2.80;99.90
24836;DHT22;12915;57.650;12.044;2022-12-18T00:18:46;2.90;99.90
24836;DHT22;12915;57.650;12.044;2022-12-18T00:21:13;3.00;99.90
24836;DHT22;12915;57.650;12.044;2022-12-18T00:23:41;3.00;99.90
24836;DHT22;12915;57.650;12.044;2022-12-18T00:26:11;2.90;99.90
24836;DHT22;12915;57.650;12.044;2022-12-18T00:28:37;2.70;99.90
24836;DHT22;12915;57.650;12.044;2022-12-18T00:31:06;2.70;99.90
24836;DHT22;12915;57.650;12.044;2022-12-18T00:33:32;2.60;99.90
24836;DHT22;12915;57.650;12.044;2022-12-18T00:36:39;2.60;99.90
24836;DHT22;12915;57.650;12.044;2022-12-18T00:38:59;2.70;99.90
24836;DHT22;12915;57.650;12.044;2022-12-18T00:41:36;2.60;99.90
24836;DHT22;12915;57.650;12.044;2022-12-18T00:44:27;2.70;99.90
24836;DHT22;12915;57.650;12.044;2022-12-18T00:49:41;2.60;99.90
24836;DHT22;12915;57.650;12.044;2022-12-18T00:52:11;2.60;99.90
24836;DHT22;12915;57.650;12.044;2022-12-18T01:02:26;2.70;99.90
24836;DHT22;12915;57.650;12.044;2022-12-18T01:04:54;2.90;99.90
24836;DHT22;12915;57.650;12.044;2022-12-18T01:07:22;2.80;99.90
24836;DHT22;12915;57.650;12.044;2022-12-18T01:09:48;2.80;99.90
24836;DHT22;12915;57.650;12.044;2022-12-18T01:12:14;2.70;99.90
24836;DHT22;12915;57.650;12.044;2022-12-18T01:14:43;2.50;99.90
24836;DHT22;12915;57.650;12.044;2022-12-18T01:17:12;2.30;99.90
24836;DHT22;12915;57.650;12.044;2022-12-18T01:19:40;2.30;99.90
24836;DHT22;12915;57.650;12.044;2022-12-18T01:22:07;2.50;99.90
24836;DHT22;12915;57.650;12.044;2022-12-18T01:24:33;2.60;99.90
24836;DHT22;12915;57.650;12.044;2022-12-18T01:27:02;2.60;99.90
24836;DHT22;12915;57.650;12.044;2022-12-18T01:29:28;2.50;99.90
24836;DHT22;12915;57.650;12.044;2022-12-18T01:31:55;2.50;99.90
24836;DHT22;12915;57.650;12.044;2022-12-18T01:34:22;2.60;99.90
24836;DHT22;12915;57.650;12.044;2022-12-18T01:36:48;2.60;99.90
24836;DHT22;12915;57.650;12.044;2022-12-18T01:39:14;2.70;99.90
24836;DHT22;12915;57.650;12.044;2022-12-18T01:41:41;2.70;99.90
24836;DHT22;12915;57.650;12.044;2022-12-18T01:47:45;2.70;99.90
24836;DHT22;12915;57.650;12.044;2022-12-18T01:52:45;2.60;99.90
24836;DHT22;12915;57.650;12.044;2022-12-18T01:55:13;2.60;99.90
24836;DHT22;12915;57.650;12.044;2022-12-18T01:57:40;2.60;99.90
24836;DHT22;12915;57.650;12.044;2022-12-18T02:00:18;2.40;99.90
24836;DHT22;12915;57.650;12.044;2022-12-18T02:02:45;2.50;99.90
24836;DHT22;12915;57.650;12.044;2022-12-18T02:05:16;2.50;99.90
24836;DHT22;12915;57.650;12.044;2022-12-18T02:08:07;2.30;99.90
24836;DHT22;12915;57.650;12.044;2022-12-18T02:10:57;2.20;99.90
24836;DHT22;12915;57.650;12.044;2022-12-18T02:13:30;2.20;99.90
24836;DHT22;12915;57.650;12.044;2022-12-18T02:16:13;2.20;99.90
24836;DHT22;12915;57.650;12.044;2022-12-18T02:18:47;2.20;99.90
24836;DHT22;12915;57.650;12.044;2022-12-18T02:24:06;2.50;99.90
24836;DHT22;12915;57.650;12.044;2022-12-18T02:26:56;2.50;99.90
24836;DHT22;12915;57.650;12.044;2022-12-18T02:29:35;2.60;99.90
24836;DHT22;12915;57.650;12.044;2022-12-18T02:32:06;2.80;99.90
24836;DHT22;12915;57.650;12.044;2022-12-18T02:34:38;2.90;99.90
24836;DHT22;12915;57.650;12.044;2022-12-18T02:37:07;2.80;99.90
24836;DHT22;12915;57.650;12.044;2022-12-18T02:39:37;2.90;99.90
24836;DHT22;12915;57.650;12.044;2022-12-18T02:42:04;2.90;99.90
24836;DHT22;12915;57.650;12.044;2022-12-18T02:44:35;2.90;99.90
24836;DHT22;12915;57.650;12.044;2022-12-18T02:47:02;2.80;99.90
24836;DHT22;12915;57.650;12.044;2022-12-18T02:49:48;2.80;99.90
24836;DHT22;12915;57.650;12.044;2022-12-18T02:58:18;2.80;99.90
24836;DHT22;12915;57.650;12.044;2022-12-18T03:00:54;2.80;99.90
24836;DHT22;12915;57.650;12.044;2022-12-18T03:03:41;2.80;99.90
24836;DHT22;12915;57.650;12.044;2022-12-18T03:06:08;2.90;99.90
24836;DHT22;12915;57.650;12.044;2022-12-18T03:08:39;2.90;99.90
24836;DHT22;12915;57.650;12.044;2022-12-18T03:11:12;3.10;99.90
24836;DHT22;12915;57.650;12.044;2022-12-18T03:13:45;3.30;99.90
24836;DHT22;12915;57.650;12.044;2022-12-18T03:16:22;3.30;99.90
24836;DHT22;12915;57.650;12.044;2022-12-18T03:19:08;3.30;99.90
24836;DHT22;12915;57.650;12.044;2022-12-18T03:22:00;3.20;99.90
24836;DHT22;12915;57.650;12.044;2022-12-18T03:24:29;3.00;99.90
24836;DHT22;12915;57.650;12.044;2022-12-18T03:27:11;3.10;99.90
24836;DHT22;12915;57.650;12.044;2022-12-18T03:30:17;3.00;99.90
24836;DHT22;12915;57.650;12.044;2022-12-18T03:35:24;3.20;99.90
24836;DHT22;12915;57.650;12.044;2022-12-18T03:37:53;3.20;99.90
24836;DHT22;12915;57.650;12.044;2022-12-18T03:40:29;3.10;99.90
24836;DHT22;12915;57.650;12.044;2022-12-18T03:43:04;3.10;99.90
24836;DHT22;12915;57.650;12.044;2022-12-18T03:45:54;3.00;99.90
24836;DHT22;12915;57.650;12.044;2022-12-18T03:48:38;2.90;99.90
24836;DHT22;12915;57.650;12.044;2022-12-18T03:51:12;3.30;99.90
24836;DHT22;12915;57.650;12.044;2022-12-18T03:53:53;3.40;99.90
24836;DHT22;12915;57.650;12.044;2022-12-18T03:56:23;3.50;99.90
24836;DHT22;12915;57.650;12.044;2022-12-18T03:58:52;3.20;99.90
24836;DHT22;12915;57.650;12.044;2022-12-18T04:01:24;3.10;99.90
24836;DHT22;12915;57.650;12.044;2022-12-18T04:03:51;2.90;99.90
24836;DHT22;12915;57.650;12.044;2022-12-18T04:06:19;2.90;99.90
24836;DHT22;12915;57.650;12.044;2022-12-18T04:08:45;2.90;99.90
24836;DHT22;12915;57.650;12.044;2022-12-18T04:11:12;3.00;99.90
24836;DHT22;12915;57.650;12.044;2022-12-18T04:13:38;3.30;99.90
24836;DHT22;12915;57.650;12.044;2022-12-18T04:16:05;3.40;99.90
24836;DHT22;12915;57.650;12.044;2022-12-18T04:18:31;3.50;99.90
24836;DHT22;12915;57.650;12.044;2022-12-18T04:20:57;3.30;99.90
24836;DHT22;12915;57.650;12.044;2022-12-18T04:23:23;3.00;99.90
24836;DHT22;12915;57.650;12.044;2022-12-18T04:25:49;3.00;99.90
24836;DHT22;12915;57.650;12.044;2022-12-18T04:28:18;3.10;99.90
24836;DHT22;12915;57.650;12.044;2022-12-18T04:30:50;3.10;99.90
24836;DHT22;12915;57.650;12.044;2022-12-18T04:33:19;3.00;99.90
24836;DHT22;12915;57.650;12.044;2022-12-18T04:35:45;2.90;99.90
24836;DHT22;12915;57.650;12.044;2022-12-18T04:38:12;3.10;99.90
24836;DHT22;12915;57.650;12.044;2022-12-18T04:40:43;3.20;99.90
24836;DHT22;12915;57.650;12.044;2022-12-18T04:43:09;3.20;99.90
24836;DHT22;12915;57.650;12.044;2022-12-18T04:45:35;3.10;99.90
24836;DHT22;12915;57.650;12.044;2022-12-18T04:48:01;3.10;99.90
24836;DHT22;12915;57.650;12.044;2022-12-18T04:50:29;3.10;99.90
24836;DHT22;12915;57.650;12.044;2022-12-18T04:52:55;3.10;99.90
24836;DHT22;12915;57.650;12.044;2022-12-18T04:55:27;3.10;99.90
24836;DHT22;12915;57.650;12.044;2022-12-18T04:57:53;3.00;99.90
24836;DHT22;12915;57.650;12.044;2022-12-18T05:00:19;3.00;99.90
24836;DHT22;12915;57.650;12.044;2022-12-18T05:02:45;3.10;99.90
24836;DHT22;12915;57.650;12.044;2022-12-18T05:05:11;3.30;99.90
24836;DHT22;12915;57.650;12.044;2022-12-18T05:07:37;3.30;99.90
24836;DHT22;12915;57.650;12.044;2022-12-18T05:10:07;3.40;99.90
24836;DHT22;12915;57.650;12.044;2022-12-18T05:12:33;3.50;99.90
24836;DHT22;12915;57.650;12.044;2022-12-18T05:14:59;3.50;99.90
24836;DHT22;12915;57.650;12.044;2022-12-18T05:20:47;3.40;99.90
24836;DHT22;12915;57.650;12.044;2022-12-18T05:23:14;3.50;99.90
24836;DHT22;12915;57.650;12.044;2022-12-18T05:25:40;3.40;99.90
24836;DHT22;12915;57.650;12.044;2022-12-18T05:28:06;3.50;99.90
24836;DHT22;12915;57.650;12.044;2022-12-18T05:30:31;3.50;99.90
24836;DHT22;12915;57.650;12.044;2022-12-18T05:32:59;3.50;99.90
24836;DHT22;12915;57.650;12.044;2022-12-18T05:35:25;3.40;99.90
24836;DHT22;12915;57.650;12.044;2022-12-18T05:37:51;3.40;99.90
24836;DHT22;12915;57.650;12.044;2022-12-18T05:40:17;3.30;99.90
24836;DHT22;12915;57.650;12.044;2022-12-18T05:42:42;3.40;99.90
24836;DHT22;12915;57.650;12.044;2022-12-18T05:45:10;3.50;99.90
24836;DHT22;12915;57.650;12.044;2022-12-18T05:47:40;3.40;99.90
24836;DHT22;12915;57.650;12.044;2022-12-18T05:50:09;3.50;99.90
24836;DHT22;12915;57.650;12.044;2022-12-18T05:52:35;3.60;99.90
24836;DHT22;12915;57.650;12.044;2022-12-18T05:55:00;3.50;99.90
24836;DHT22;12915;57.650;12.044;2022-12-18T05:57:26;3.40;99.90
24836;DHT22;12915;57.650;12.044;2022-12-18T05:59:52;3.50;99.90
24836;DHT22;12915;57.650;12.044;2022-12-18T06:02:19;3.40;99.90
24836;DHT22;12915;57.650;12.044;2022-12-18T06:04:46;3.50;99.90
24836;DHT22;12915;57.650;12.044;2022-12-18T06:07:12;3.70;99.90
24836;DHT22;12915;57.650;12.044;2022-12-18T06:09:38;3.60;99.90
24836;DHT22;12915;57.650;12.044;2022-12-18T06:12:05;3.50;99.90
24836;DHT22;12915;57.650;12.044;2022-12-18T06:14:32;3.40;99.90
24836;DHT22;12915;57.650;12.044;2022-12-18T06:16:59;3.30;99.90
24836;DHT22;12915;57.650;12.044;2022-12-18T06:19:25;3.30;99.90
24836;DHT22;12915;57.650;12.044;2022-12-18T06:21:52;3.30;99.90
24836;DHT22;12915;57.650;12.044;2022-12-18T06:24:18;3.30;99.90
24836;DHT22;12915;57.650;12.044;2022-12-18T06:26:44;3.30;99.90
24836;DHT22;12915;57.650;12.044;2022-12-18T06:29:09;3.30;99.90
24836;DHT22;12915;57.650;12.044;2022-12-18T06:31:35;3.50;99.90
24836;DHT22;12915;57.650;12.044;2022-12-18T06:34:07;3.50;99.90
24836;DHT22;12915;57.650;12.044;2022-12-18T06:36:36;3.50;99.90
24836;DHT22;12915;57.650;12.044;2022-12-18T06:39:02;3.60;99.90
24836;DHT22;12915;57.650;12.044;2022-12-18T06:41:28;3.50;99.90
24836;DHT22;12915;57.650;12.044;2022-12-18T06:43:54;3.50;99.90
24836;DHT22;12915;57.650;12.044;2022-12-18T06:46:21;3.50;99.90
24836;DHT22;12915;57.650;12.044;2022-12-18T06:48:48;3.50;99.90
24836;DHT22;12915;57.650;12.044;2022-12-18T06:51:23;3.50;99.90
24836;DHT22;12915;57.650;12.044;2022-12-18T06:53:51;3.60;99.90
24836;DHT22;12915;57.650;12.044;2022-12-18T06:59:35;3.60;99.90
24836;DHT22;12915;57.650;12.044;2022-12-18T07:02:02;3.70;99.90
24836;DHT22;12915;57.650;12.044;2022-12-18T07:04:31;3.70;99.90
24836;DHT22;12915;57.650;12.044;2022-12-18T07:06:57;3.60;99.90
24836;DHT22;12915;57.650;12.044;2022-12-18T07:09:23;3.60;99.90
24836;DHT22;12915;57.650;12.044;2022-12-18T07:11:49;3.70;99.90
24836;DHT22;12915;57.650;12.044;2022-12-18T07:14:17;3.60;99.90
24836;DHT22;12915;57.650;12.044;2022-12-18T07:16:48;3.50;99.90
24836;DHT22;12915;57.650;12.044;2022-12-18T07:19:14;3.60;99.90
24836;DHT22;12915;57.650;12.044;2022-12-18T07:21:40;3.60;99.90
24836;DHT22;12915;57.650;12.044;2022-12-18T07:24:07;3.60;99.90
24836;DHT22;12915;57.650;12.044;2022-12-18T07:26:36;3.60;99.90
24836;DHT22;12915;57.650;12.044;2022-12-18T07:29:06;3.60;99.90
24836;DHT22;12915;57.650;12.044;2022-12-18T07:34:55;3.70;99.90
24836;DHT22;12915;57.650;12.044;2022-12-18T07:37:21;3.80;99.90
24836;DHT22;12915;57.650;12.044;2022-12-18T07:39:48;3.80;99.90
24836;DHT22;12915;57.650;12.044;2022-12-18T07:42:14;3.70;99.90
24836;DHT22;12915;57.650;12.044;2022-12-18T07:45:02;3.80;99.90
24836;DHT22;12915;57.650;12.044;2022-12-18T07:47:33;3.80;99.90
24836;DHT22;12915;57.650;12.044;2022-12-18T07:50:03;3.90;99.90
24836;DHT22;12915;57.650;12.044;2022-12-18T07:52:29;4.00;99.90
24836;DHT22;12915;57.650;12.044;2022-12-18T07:54:55;4.00;99.90
24836;DHT22;12915;57.650;12.044;2022-12-18T07:57:21;3.80;99.90
24836;DHT22;12915;57.650;12.044;2022-12-18T07:59:46;3.80;99.90
24836;DHT22;12915;57.650;12.044;2022-12-18T08:02:13;3.70;99.90
24836;DHT22;12915;57.650;12.044;2022-12-18T08:04:40;3.80;99.90
24836;DHT22;12915;57.650;12.044;2022-12-18T08:07:06;3.90;99.90
24836;DHT22;12915;57.650;12.044;2022-12-18T08:09:32;3.80;99.90
24836;DHT22;12915;57.650;12.044;2022-12-18T08:11:58;3.90;99.90
24836;DHT22;12915;57.650;12.044;2022-12-18T08:14:24;3.80;99.90
24836;DHT22;12915;57.650;12.044;2022-12-18T08:16:50;3.90;99.90
24836;DHT22;12915;57.650;12.044;2022-12-18T08:19:16;3.80;99.90
24836;DHT22;12915;57.650;12.044;2022-12-18T08:21:41;3.90;99.90
24836;DHT22;12915;57.650;12.044;2022-12-18T08:24:09;3.90;99.90
24836;DHT22;12915;57.650;12.044;2022-12-18T08:26:35;3.80;99.90
24836;DHT22;12915;57.650;12.044;2022-12-18T08:29:01;3.80;99.90
24836;DHT22;12915;57.650;12.044;2022-12-18T08:31:28;3.80;99.90
24836;DHT22;12915;57.650;12.044;2022-12-18T08:33:55;3.90;99.90
24836;DHT22;12915;57.650;12.044;2022-12-18T08:36:22;3.90;99.90
24836;DHT22;12915;57.650;12.044;2022-12-18T08:38:48;4.00;99.90
24836;DHT22;12915;57.650;12.044;2022-12-18T08:41:15;4.00;99.90
24836;DHT22;12915;57.650;12.044;2022-12-18T08:43:42;4.00;99.90
24836;DHT22;12915;57.650;12.044;2022-12-18T08:46:27;4.00;99.90
24836;DHT22;12915;57.650;12.044;2022-12-18T08:48:53;4.10;99.90
24836;DHT22;12915;57.650;12.044;2022-12-18T08:51:20;4.10;99.90
24836;DHT22;12915;57.650;12.044;2022-12-18T08:53:47;4.20;99.90
24836;DHT22;12915;57.650;12.044;2022-12-18T08:56:13;4.10;99.90
24836;DHT22;12915;57.650;12.044;2022-12-18T08:58:39;4.00;99.90
24836;DHT22;12915;57.650;12.044;2022-12-18T09:01:09;4.00;99.90
24836;DHT22;12915;57.650;12.044;2022-12-18T09:03:35;4.10;99.90
24836;DHT22;12915;57.650;12.044;2022-12-18T09:06:02;4.10;99.90
24836;DHT22;12915;57.650;12.044;2022-12-18T09:08:30;3.90;99.90
24836;DHT22;12915;57.650;12.044;2022-12-18T09:10:56;3.90;99.90
24836;DHT22;12915;57.650;12.044;2022-12-18T09:13:22;4.00;99.90
24836;DHT22;12915;57.650;12.044;2022-12-18T09:15:50;4.00;99.90
24836;DHT22;12915;57.650;12.044;2022-12-18T09:18:18;4.00;99.90
24836;DHT22;12915;57.650;12.044;2022-12-18T09:20:45;4.10;99.90
24836;DHT22;12915;57.650;12.044;2022-12-18T09:23:11;4.00;99.90
24836;DHT22;12915;57.650;12.044;2022-12-18T09:25:39;4.10;99.90
24836;DHT22;12915;57.650;12.044;2022-12-18T09:28:18;4.00;99.90
24836;DHT22;12915;57.650;12.044;2022-12-18T09:30:48;4.00;99.90
24836;DHT22;12915;57.650;12.044;2022-12-18T09:33:15;3.80;99.90
24836;DHT22;12915;57.650;12.044;2022-12-18T09:35:43;3.80;99.90
24836;DHT22;12915;57.650;12.044;2022-12-18T09:38:33;3.90;99.90
24836;DHT22;12915;57.650;12.044;2022-12-18T09:44:03;4.30;99.90
24836;DHT22;12915;57.650;12.044;2022-12-18T09:46:34;4.30;99.90
24836;DHT22;12915;57.650;12.044;2022-12-18T09:49:05;4.40;99.90
24836;DHT22;12915;57.650;12.044;2022-12-18T09:51:46;4.20;99.90
24836;DHT22;12915;57.650;12.044;2022-12-18T09:54:20;4.10;99.90
24836;DHT22;12915;57.650;12.044;2022-12-18T09:56:48;4.20;99.90
24836;DHT22;12915;57.650;12.044;2022-12-18T09:59:27;4.20;99.90
24836;DHT22;12915;57.650;12.044;2022-12-18T10:01:55;4.10;99.90
24836;DHT22;12915;57.650;12.044;2022-12-18T10:04:24;4.00;99.90
24836;DHT22;12915;57.650;12.044;2022-12-18T10:07:04;4.00;99.90
24836;DHT22;12915;57.650;12.044;2022-12-18T10:10:14;4.10;99.90
24836;DHT22;12915;57.650;12.044;2022-12-18T10:12:51;4.40;99.90
24836;DHT22;12915;57.650;12.044;2022-12-18T10:15:39;4.20;99.90
24836;DHT22;12915;57.650;12.044;2022-12-18T10:18:33;4.20;99.90
24836;DHT22;12915;57.650;12.044;2022-12-18T10:21:11;4.30;99.90
24836;DHT22;12915;57.650;12.044;2022-12-18T10:26:22;4.30;99.90
24836;DHT22;12915;57.650;12.044;2022-12-18T10:28:50;4.20;99.90
24836;DHT22;12915;57.650;12.044;2022-12-18T10:31:19;4.30;99.90
24836;DHT22;12915;57.650;12.044;2022-12-18T10:33:46;4.60;99.90
24836;DHT22;12915;57.650;12.044;2022-12-18T10:36:12;4.70;99.90
24836;DHT22;12915;57.650;12.044;2022-12-18T10:38:38;4.70;99.90
24836;DHT22;12915;57.650;12.044;2022-12-18T10:41:24;4.60;99.90
24836;DHT22;12915;57.650;12.044;2022-12-18T10:44:28;4.70;99.90
24836;DHT22;12915;57.650;12.044;2022-12-18T10:47:02;4.50;99.90
24836;DHT22;12915;57.650;12.044;2022-12-18T10:49:31;4.30;99.90
24836;DHT22;12915;57.650;12.044;2022-12-18T10:52:18;4.30;99.90
24836;DHT22;12915;57.650;12.044;2022-12-18T10:55:05;4.50;99.90
24836;DHT22;12915;57.650;12.044;2022-12-18T10:57:36;4.80;99.90
24836;DHT22;12915;57.650;12.044;2022-12-18T11:00:29;5.00;99.90
24836;DHT22;12915;57.650;12.044;2022-12-18T11:02:56;5.30;99.90
24836;DHT22;12915;57.650;12.044;2022-12-18T11:05:25;5.50;99.90
24836;DHT22;12915;57.650;12.044;2022-12-18T11:07:51;5.50;99.90
24836;DHT22;12915;57.650;12.044;2022-12-18T11:10:22;5.50;99.90
24836;DHT22;12915;57.650;12.044;2022-12-18T11:12:48;5.40;99.90
24836;DHT22;12915;57.650;12.044;2022-12-18T11:15:29;5.20;99.90
24836;DHT22;12915;57.650;12.044;2022-12-18T11:17:55;5.10;99.90
24836;DHT22;12915;57.650;12.044;2022-12-18T11:20:32;5.50;99.90
24836;DHT22;12915;57.650;12.044;2022-12-18T11:23:12;5.30;99.90
24836;DHT22;12915;57.650;12.044;2022-12-18T11:25:39;4.90;99.90
24836;DHT22;12915;57.650;12.044;2022-12-18T11:28:37;4.70;99.90
24836;DHT22;12915;57.650;12.044;2022-12-18T11:34:10;4.50;99.90
24836;DHT22;12915;57.650;12.044;2022-12-18T11:36:47;4.50;99.90
24836;DHT22;12915;57.650;12.044;2022-12-18T11:41:56;4.70;99.90
24836;DHT22;12915;57.650;12.044;2022-12-18T11:47:18;4.80;99.90
24836;DHT22;12915;57.650;12.044;2022-12-18T11:49:49;5.20;99.90
24836;DHT22;12915;57.650;12.044;2022-12-18T11:52:22;5.20;99.90
24836;DHT22;12915;57.650;12.044;2022-12-18T11:54:58;5.20;99.90
24836;DHT22;12915;57.650;12.044;2022-12-18T12:00:40;6.00;99.90
24836;DHT22;12915;57.650;12.044;2022-12-18T12:03:31;6.20;99.90
24836;DHT22;12915;57.650;12.044;2022-12-18T12:06:13;6.00;99.90
24836;DHT22;12915;57.650;12.044;2022-12-18T12:12:15;5.10;99.90
24836;DHT22;12915;57.650;12.044;2022-12-18T12:31:51;5.20;99.90
24836;DHT22;12915;57.650;12.044;2022-12-18T12:40:13;5.50;99.90
24836;DHT22;12915;57.650;12.044;2022-12-18T12:43:02;5.50;99.90
24836;DHT22;12915;57.650;12.044;2022-12-18T12:52:37;5.20;99.90
24836;DHT22;12915;57.650;12.044;2022-12-18T12:55:12;5.50;99.90
24836;DHT22;12915;57.650;12.044;2022-12-18T13:00:22;5.50;99.90
24836;DHT22;12915;57.650;12.044;2022-12-18T13:03:12;5.30;99.90
24836;DHT22;12915;57.650;12.044;2022-12-18T13:05:58;5.20;99.90
24836;DHT22;12915;57.650;12.044;2022-12-18T13:08:27;5.30;99.90
24836;DHT22;12915;57.650;12.044;2022-12-18T13:10:57;5.60;99.90
24836;DHT22;12915;57.650;12.044;2022-12-18T13:13:51;6.10;99.90
24836;DHT22;12915;57.650;12.044;2022-12-18T13:16:23;6.50;99.90
24836;DHT22;12915;57.650;12.044;2022-12-18T13:19:26;6.30;99.90
24836;DHT22;12915;57.650;12.044;2022-12-18T13:21:58;5.90;99.90
24836;DHT22;12915;57.650;12.044;2022-12-18T13:24:37;5.60;99.90
24836;DHT22;12915;57.650;12.044;2022-12-18T13:35:41;5.60;99.90
24836;DHT22;12915;57.650;12.044;2022-12-18T13:41:21;5.50;99.90
24836;DHT22;12915;57.650;12.044;2022-12-18T13:43:49;5.60;99.90
24836;DHT22;12915;57.650;12.044;2022-12-18T13:51:56;5.90;99.90
24836;DHT22;12915;57.650;12.044;2022-12-18T13:54:39;5.80;99.90
24836;DHT22;12915;57.650;12.044;2022-12-18T13:57:29;5.90;99.90
24836;DHT22;12915;57.650;12.044;2022-12-18T13:59:56;5.50;99.90
24836;DHT22;12915;57.650;12.044;2022-12-18T14:02:24;5.60;99.90
24836;DHT22;12915;57.650;12.044;2022-12-18T14:04:51;5.50;99.90
24836;DHT22;12915;57.650;12.044;2022-12-18T14:07:28;5.20;99.90
24836;DHT22;12915;57.650;12.044;2022-12-18T14:09:56;5.30;99.90
24836;DHT22;12915;57.650;12.044;2022-12-18T14:12:31;5.70;99.90
24836;DHT22;12915;57.650;12.044;2022-12-18T14:18:09;5.40;99.90
24836;DHT22;12915;57.650;12.044;2022-12-18T14:20:43;5.30;99.90
24836;DHT22;12915;57.650;12.044;2022-12-18T14:23:33;5.00;99.90
24836;DHT22;12915;57.650;12.044;2022-12-18T14:28:45;4.80;99.90
24836;DHT22;12915;57.650;12.044;2022-12-18T14:31:37;4.80;99.90
24836;DHT22;12915;57.650;12.044;2022-12-18T14:34:03;4.80;99.90
24836;DHT22;12915;57.650;12.044;2022-12-18T14:36:29;4.70;99.90
24836;DHT22;12915;57.650;12.044;2022-12-18T14:38:56;4.80;99.90
24836;DHT22;12915;57.650;12.044;2022-12-18T14:41:23;4.60;99.90
24836;DHT22;12915;57.650;12.044;2022-12-18T14:43:51;4.50;99.90
24836;DHT22;12915;57.650;12.044;2022-12-18T14:46:37;4.40;99.90
24836;DHT22;12915;57.650;12.044;2022-12-18T14:49:16;4.40;99.90
24836;DHT22;12915;57.650;12.044;2022-12-18T14:51:50;4.20;99.90
24836;DHT22;12915;57.650;12.044;2022-12-18T14:54:18;4.40;99.90
24836;DHT22;12915;57.650;12.044;2022-12-18T14:56:46;4.50;99.90
24836;DHT22;12915;57.650;12.044;2022-12-18T14:59:21;4.80;99.90
24836;DHT22;12915;57.650;12.044;2022-12-18T15:04:28;4.40;99.90
24836;DHT22;12915;57.650;12.044;2022-12-18T15:07:20;4.40;99.90
24836;DHT22;12915;57.650;12.044;2022-12-18T15:10:21;4.50;99.90
24836;DHT22;12915;57.650;12.044;2022-12-18T15:20:56;5.30;99.90
24836;DHT22;12915;57.650;12.044;2022-12-18T15:26:13;4.80;99.90
24836;DHT22;12915;57.650;12.044;2022-12-18T15:28:54;4.80;99.90
24836;DHT22;12915;57.650;12.044;2022-12-18T15:31:35;4.80;99.90
24836;DHT22;12915;57.650;12.044;2022-12-18T15:34:19;4.90;99.90
24836;DHT22;12915;57.650;12.044;2022-12-18T15:36:46;5.00;99.90
24836;DHT22;12915;57.650;12.044;2022-12-18T15:39:13;5.00;99.90
24836;DHT22;12915;57.650;12.044;2022-12-18T15:41:39;5.00;99.90
24836;DHT22;12915;57.650;12.044;2022-12-18T15:44:35;4.80;99.90
24836;DHT22;12915;57.650;12.044;2022-12-18T15:47:01;4.50;99.90
24836;DHT22;12915;57.650;12.044;2022-12-18T15:49:27;4.50;99.90
24836;DHT22;12915;57.650;12.044;2022-12-18T15:52:00;4.40;99.90
24836;DHT22;12915;57.650;12.044;2022-12-18T15:54:27;4.50;99.90
24836;DHT22;12915;57.650;12.044;2022-12-18T15:57:12;4.40;99.90
24836;DHT22;12915;57.650;12.044;2022-12-18T15:59:52;4.20;99.90
24836;DHT22;12915;57.650;12.044;2022-12-18T16:02:19;4.50;99.90
24836;DHT22;12915;57.650;12.044;2022-12-18T16:04:45;4.50;99.90
24836;DHT22;12915;57.650;12.044;2022-12-18T16:07:12;4.70;99.90
24836;DHT22;12915;57.650;12.044;2022-12-18T16:09:42;4.70;99.90
24836;DHT22;12915;57.650;12.044;2022-12-18T16:12:20;4.70;99.90
24836;DHT22;12915;57.650;12.044;2022-12-18T16:14:58;4.70;99.90
24836;DHT22;12915;57.650;12.044;2022-12-18T16:20:46;4.50;99.90
24836;DHT22;12915;57.650;12.044;2022-12-18T16:23:12;4.50;99.90
24836;DHT22;12915;57.650;12.044;2022-12-18T16:25:38;4.40;99.90
24836;DHT22;12915;57.650;12.044;2022-12-18T16:28:04;4.30;99.90
24836;DHT22;12915;57.650;12.044;2022-12-18T16:30:31;4.20;99.90
24836;DHT22;12915;57.650;12.044;2022-12-18T16:32:57;4.50;99.90
24836;DHT22;12915;57.650;12.044;2022-12-18T16:35:24;4.60;99.90
24836;DHT22;12915;57.650;12.044;2022-12-18T16:37:51;5.00;99.90
24836;DHT22;12915;57.650;12.044;2022-12-18T16:40:18;5.00;99.90
24836;DHT22;12915;57.650;12.044;2022-12-18T16:42:45;4.90;99.90
24836;DHT22;12915;57.650;12.044;2022-12-18T16:45:15;5.00;99.90
24836;DHT22;12915;57.650;12.044;2022-12-18T16:47:42;4.90;99.90
24836;DHT22;12915;57.650;12.044;2022-12-18T16:50:09;4.90;99.90
24836;DHT22;12915;57.650;12.044;2022-12-18T16:52:35;5.00;99.90
24836;DHT22;12915;57.650;12.044;2022-12-18T16:55:02;5.00;99.90
24836;DHT22;12915;57.650;12.044;2022-12-18T16:57:28;5.00;99.90
24836;DHT22;12915;57.650;12.044;2022-12-18T16:59:53;4.90;99.90
24836;DHT22;12915;57.650;12.044;2022-12-18T17:02:22;5.20;99.90
24836;DHT22;12915;57.650;12.044;2022-12-18T17:04:53;5.50;99.90
24836;DHT22;12915;57.650;12.044;2022-12-18T17:07:19;5.60;99.90
24836;DHT22;12915;57.650;12.044;2022-12-18T17:09:45;5.70;99.90
24836;DHT22;12915;57.650;12.044;2022-12-18T17:12:11;5.70;99.90
24836;DHT22;12915;57.650;12.044;2022-12-18T17:14:37;5.40;99.90
24836;DHT22;12915;57.650;12.044;2022-12-18T17:17:03;5.30;99.90
24836;DHT22;12915;57.650;12.044;2022-12-18T17:19:29;5.60;99.90
24836;DHT22;12915;57.650;12.044;2022-12-18T17:21:55;5.50;99.90
24836;DHT22;12915;57.650;12.044;2022-12-18T17:24:21;5.20;99.90
24836;DHT22;12915;57.650;12.044;2022-12-18T17:26:47;5.10;99.90
24836;DHT22;12915;57.650;12.044;2022-12-18T17:29:16;5.30;99.90
24836;DHT22;12915;57.650;12.044;2022-12-18T17:31:43;5.30;99.90
24836;DHT22;12915;57.650;12.044;2022-12-18T17:34:10;5.10;99.90
24836;DHT22;12915;57.650;12.044;2022-12-18T17:36:37;5.20;99.90
24836;DHT22;12915;57.650;12.044;2022-12-18T17:39:04;5.40;99.90
24836;DHT22;12915;57.650;12.044;2022-12-18T17:41:31;5.40;99.90
24836;DHT22;12915;57.650;12.044;2022-12-18T17:43:59;5.40;99.90
24836;DHT22;12915;57.650;12.044;2022-12-18T17:46:27;5.50;99.90
24836;DHT22;12915;57.650;12.044;2022-12-18T17:48:58;5.40;99.90
24836;DHT22;12915;57.650;12.044;2022-12-18T17:51:24;5.40;99.90
24836;DHT22;12915;57.650;12.044;2022-12-18T17:53:51;5.40;99.90
24836;DHT22;12915;57.650;12.044;2022-12-18T17:56:19;5.50;99.90
24836;DHT22;12915;57.650;12.044;2022-12-18T17:58:45;5.30;99.90
24836;DHT22;12915;57.650;12.044;2022-12-18T18:01:14;5.20;99.90
24836;DHT22;12915;57.650;12.044;2022-12-18T18:03:41;5.60;99.90
24836;DHT22;12915;57.650;12.044;2022-12-18T18:06:07;5.70;99.90